createdAt,value
2022-10-24T00:00:30.120Z,10.27
2022-10-24T00:06:32.148Z,9.77
2022-10-24T00:12:34.486Z,9.20
2022-10-24T00:18:36.657Z,9.65
2022-10-24T00:24:38.865Z,8.40
2022-10-24T00:30:40.994Z,8.67
2022-10-24T00:36:42.970Z,9.00
2022-10-24T00:42:45.464Z,9.23
2022-10-24T00:48:50.417Z,9.27
2022-10-24T00:54:54.305Z,9.02
2022-10-24T01:00:56.970Z,10.05
2022-10-24T01:13:34.252Z,10.35
2022-10-24T01:19:48.189Z,10.68
2022-10-24T01:26:19.605Z,9.93
2022-10-24T01:32:31.921Z,9.68
2022-10-24T01:38:48.179Z,9.27
2022-10-24T01:44:54.134Z,9.15
2022-10-24T01:50:57.616Z,8.48
2022-10-24T01:56:59.735Z,8.15
2022-10-24T02:03:30.896Z,8.03
2022-10-24T02:09:35.557Z,8.93
2022-10-24T02:15:43.483Z,9.45
2022-10-24T02:22:01.327Z,8.52
2022-10-24T02:28:19.177Z,8.38
2022-10-24T02:34:24.142Z,7.43
2022-10-24T02:40:26.505Z,6.53
2022-10-24T02:46:30.050Z,5.97
2022-10-24T02:52:32.929Z,6.45
2022-10-24T02:58:35.132Z,6.57
2022-10-24T03:04:37.254Z,6.13
2022-10-24T03:10:39.402Z,7.33
2022-10-24T03:16:41.504Z,7.17
2022-10-24T03:22:43.694Z,7.37
2022-10-24T03:28:45.745Z,6.40
2022-10-24T03:34:47.890Z,6.60
2022-10-24T03:40:51.116Z,7.03
2022-10-24T03:46:53.148Z,6.90
2022-10-24T03:52:55.329Z,4.67
2022-10-24T03:58:57.673Z,6.60
2022-10-24T04:04:59.839Z,7.72
2022-10-24T04:11:02.060Z,6.50
2022-10-24T04:17:04.322Z,6.65
2022-10-24T04:23:06.300Z,6.30
2022-10-24T04:29:08.412Z,6.93
2022-10-24T04:35:10.567Z,7.13
2022-10-24T04:41:12.716Z,7.73
2022-10-24T04:47:15.481Z,6.80
2022-10-24T04:59:19.836Z,8.18
2022-10-24T05:05:22.143Z,8.23
2022-10-24T05:11:24.197Z,6.50
2022-10-24T05:17:26.713Z,7.20
2022-10-24T05:23:29.153Z,7.00
2022-10-24T05:29:31.493Z,7.53
2022-10-24T05:35:33.830Z,7.95
2022-10-24T05:41:35.809Z,8.88
2022-10-24T05:47:37.852Z,15.67
2022-10-24T05:53:39.961Z,9.03
2022-10-24T05:59:42.029Z,9.17
2022-10-24T06:05:44.051Z,9.57
2022-10-24T06:11:46.100Z,9.47
2022-10-24T06:17:48.340Z,9.33
2022-10-24T06:23:50.317Z,8.82
2022-10-24T06:29:52.478Z,10.87
2022-10-24T06:35:54.696Z,8.57
2022-10-24T06:41:56.842Z,7.45
2022-10-24T06:48:01.313Z,7.72
2022-10-24T06:54:03.816Z,8.27
2022-10-24T07:06:20.525Z,8.32
2022-10-24T07:12:26.342Z,8.10
2022-10-24T07:18:28.459Z,8.38
2022-10-24T07:24:30.709Z,6.90
2022-10-24T07:36:38.910Z,8.45
2022-10-24T07:42:45.055Z,7.40
2022-10-24T07:48:50.262Z,7.82
2022-10-24T07:54:55.773Z,8.45
2022-10-24T08:01:04.762Z,8.00
2022-10-24T08:07:13.713Z,9.05
2022-10-24T08:13:16.192Z,8.55
2022-10-24T08:19:18.487Z,11.32
2022-10-24T08:25:20.826Z,9.00
2022-10-24T08:31:24.688Z,9.38
2022-10-24T08:37:26.789Z,9.13
2022-10-24T08:43:29.246Z,10.23
2022-10-24T08:55:55.679Z,12.50
2022-10-24T09:02:04.475Z,8.82
2022-10-24T09:08:35.775Z,8.02
2022-10-24T09:14:39.719Z,7.72
2022-10-24T09:20:41.754Z,7.50
2022-10-24T09:26:46.018Z,7.55
2022-10-24T09:32:48.477Z,8.32
2022-10-24T09:38:50.802Z,7.75
2022-10-24T09:44:57.652Z,6.50
2022-10-24T09:51:00.512Z,7.95
2022-10-24T09:57:11.538Z,7.07
2022-10-24T10:03:23.692Z,7.57
2022-10-24T10:09:31.724Z,8.20
2022-10-24T10:16:01.491Z,6.57
2022-10-24T10:22:06.225Z,5.88
2022-10-24T10:28:20.892Z,7.03
2022-10-24T10:34:26.155Z,6.70
2022-10-24T10:40:38.029Z,6.85
2022-10-24T10:46:52.139Z,5.23
2022-10-24T10:53:00.406Z,5.80
2022-10-24T10:59:12.974Z,4.43
2022-10-24T11:05:37.836Z,9.27
2022-10-24T11:11:47.286Z,6.00
2022-10-24T11:18:12.735Z,4.22
2022-10-24T11:24:22.819Z,4.35
2022-10-24T11:30:42.264Z,4.10
2022-10-24T11:37:06.467Z,3.80
2022-10-24T11:43:22.268Z,5.03
2022-10-24T11:49:33.179Z,5.05
2022-10-24T11:55:39.303Z,4.53
2022-10-24T12:02:09.986Z,4.00
2022-10-24T12:08:30.636Z,4.70
2022-10-24T12:15:00.989Z,3.58
2022-10-24T12:21:07.488Z,3.67
2022-10-24T12:27:24.876Z,4.63
2022-10-24T12:33:27.774Z,4.78
2022-10-24T12:39:35.721Z,5.10
2022-10-24T12:45:37.815Z,4.78
2022-10-24T12:51:41.054Z,6.03
2022-10-24T12:57:46.539Z,6.95
2022-10-24T13:03:55.154Z,4.10
2022-10-24T13:10:16.455Z,3.72
2022-10-24T13:16:36.268Z,2.72
2022-10-24T13:22:38.372Z,3.13
2022-10-24T13:28:41.017Z,3.13
2022-10-24T13:34:55.119Z,3.42
2022-10-24T13:40:57.816Z,3.40
2022-10-24T13:47:08.196Z,3.45
2022-10-24T13:53:28.275Z,4.47
2022-10-24T13:59:38.054Z,3.33
2022-10-24T14:05:53.116Z,4.28
2022-10-24T14:11:57.785Z,4.20
2022-10-24T14:18:03.099Z,4.60
2022-10-24T14:24:15.646Z,4.40
2022-10-24T14:30:23.748Z,4.53
2022-10-24T14:36:29.520Z,4.22
2022-10-24T14:42:32.106Z,4.80
2022-10-24T14:48:34.561Z,4.65
2022-10-24T15:00:40.222Z,4.38
2022-10-24T15:06:44.567Z,4.80
2022-10-24T15:13:01.418Z,5.25
2022-10-24T15:19:06.249Z,5.05
2022-10-24T15:25:19.170Z,6.50
2022-10-24T15:31:22.352Z,7.75
2022-10-24T15:37:25.896Z,7.10
2022-10-24T15:43:28.385Z,7.10
2022-10-24T15:49:31.826Z,7.07
2022-10-24T15:55:34.032Z,6.38
2022-10-24T16:01:39.858Z,7.63
2022-10-24T16:07:42.867Z,9.05
2022-10-24T16:13:45.401Z,9.15
2022-10-24T16:19:47.521Z,8.23
2022-10-24T16:25:49.680Z,9.45
2022-10-24T16:31:52.041Z,10.63
2022-10-24T16:37:54.888Z,9.82
2022-10-24T16:43:58.078Z,12.25
2022-10-24T16:50:00.543Z,11.77
2022-10-24T16:56:02.606Z,11.10
2022-10-24T17:02:04.997Z,11.88
2022-10-24T17:08:07.642Z,10.85
2022-10-24T17:14:09.999Z,12.00
2022-10-24T17:20:13.543Z,9.13
2022-10-24T17:26:16.629Z,9.00
2022-10-24T17:32:18.858Z,10.85
2022-10-24T17:38:48.579Z,12.13
2022-10-24T17:44:50.995Z,11.10
2022-10-24T17:50:56.538Z,21.13
2022-10-24T17:56:58.689Z,17.08
2022-10-24T18:03:01.344Z,12.93
2022-10-24T18:09:03.821Z,14.15
2022-10-24T18:15:08.393Z,16.02
2022-10-24T18:21:13.516Z,14.40
2022-10-24T18:27:15.900Z,13.77
2022-10-24T18:33:18.245Z,15.77
2022-10-24T18:39:20.440Z,14.50
2022-10-24T18:45:25.439Z,12.43
2022-10-24T18:51:36.195Z,15.32
2022-10-24T18:57:39.183Z,14.43
2022-10-24T19:03:43.827Z,15.77
2022-10-24T19:09:46.366Z,17.05
2022-10-24T19:16:00.459Z,15.85
2022-10-24T19:22:02.590Z,18.05
2022-10-24T19:28:04.804Z,17.13
2022-10-24T19:34:07.102Z,18.13
2022-10-24T19:40:10.078Z,18.38
2022-10-24T19:46:19.750Z,17.60
2022-10-24T19:52:22.617Z,17.88
2022-10-24T19:58:24.756Z,14.30
2022-10-24T20:04:27.274Z,10.30
2022-10-24T20:16:32.575Z,15.25
2022-10-24T20:22:34.681Z,13.50
2022-10-24T20:28:39.317Z,16.27
2022-10-24T20:34:41.484Z,17.80
2022-10-24T20:40:43.905Z,14.93
2022-10-24T20:46:46.057Z,14.27
2022-10-24T20:52:48.375Z,15.03
2022-10-24T20:58:52.077Z,14.45
2022-10-24T21:11:33.264Z,16.05
2022-10-24T21:17:35.510Z,14.90
2022-10-24T21:23:37.920Z,15.25
2022-10-24T21:29:40.378Z,13.20
2022-10-24T21:35:43.156Z,13.27
2022-10-24T21:47:47.259Z,10.48
2022-10-24T21:53:54.866Z,12.00
2022-10-24T21:59:57.118Z,13.10
2022-10-24T22:05:59.238Z,13.60
2022-10-24T22:12:01.325Z,13.43
2022-10-24T22:18:03.652Z,12.68
2022-10-24T22:24:09.181Z,12.17
2022-10-24T22:30:11.548Z,11.77
2022-10-24T22:36:51.374Z,12.13
2022-10-24T22:42:54.082Z,11.90
2022-10-24T22:54:59.930Z,11.30
2022-10-24T23:01:39.494Z,12.38
2022-10-24T23:07:49.887Z,12.25
2022-10-24T23:13:52.469Z,12.98
2022-10-24T23:26:05.135Z,11.77
2022-10-24T23:32:15.703Z,11.18
2022-10-24T23:38:17.868Z,11.85
2022-10-24T23:44:20.097Z,10.70
2022-10-24T23:50:32.085Z,8.30
2022-10-24T23:56:34.423Z,9.95
